• Join FlightAware (Why Join?)
  • Login
  • US Flag 
10:33AM EDT


 

Airport Tracker/Info


-or-


 

Live Flight TrackerFlight Track Log ✈ AJT744 ✈ 17-May-2013 ✈ MMMD / MID - KMIA

Flight Track Log - Related Links

Times and Time Zones

All times are in EDT time to prevent confusion due to time zone crossing. See the AJT744 flight status page for this flight to view local times or setup timezone preferences in your user account.

Time Position Orientation Groundspeed Altitude Reporting Facility
EDT Latitude Longitude Course Direction KTS MPH feet Rate Location/Type
11:32AM 23.3961 -83.3169 51° Northeast 467 537 39,000  Level Miami Center
11:33AM 23.4869 -83.1925 51° Northeast 490 564 39,000  Level Miami Center
11:34AM 23.5753 -83.0747 51° Northeast 496 571 39,000  Level Miami Center
11:35AM 23.6636 -82.9611 50° Northeast 496 571 39,000  Level Miami Center
11:36AM 23.7494 -82.8450 51° Northeast 496 571 39,000  Level Miami Center
11:37AM 23.8397 -82.7292 50° Northeast 496 571 39,000  Level Miami Center
11:38AM 23.9236 -82.6103 52° Northeast 496 571 39,000  Level Miami Center
11:39AM 24.0114 -82.4961 50° Northeast 496 571 39,000  Level Miami Center
11:40AM 24.1203 -82.3761 45° Northeast 498 573 39,000  Level Miami Center
11:41AM 24.2222 -82.2736 43° Northeast 498 573 39,000 -60 Level Miami Center
11:42AM 24.3178 -82.1728 44° Northeast 488 562 38,900 -1,200 Descending Miami Center
11:43AM 24.4194 -82.0700 43° Northeast 482 555 36,700 -2,580 Descending Miami Center
11:44AM 24.5211 -81.9694 42° Northeast 487 560 33,800 -2,940 Descending Miami Center
11:45AM 24.6206 -81.8683 43° Northeast 487 560 30,900 -2,460 Descending Miami Center
11:46AM 24.7133 -81.7853 39° Northeast 481 554 28,900 -2,100 Descending Miami Center
11:47AM 24.8042 -81.6836 45° Northeast 475 547 26,700 -2,220 Descending Miami Center
11:48AM 24.8992 -81.5867 43° Northeast 434 499 24,500 -2,220 Descending Miami Center
11:49AM 24.9900 -81.4939 43° Northeast 427 491 22,300 -2,160 Descending Miami Center
11:50AM 25.0783 -81.4033 43° Northeast 427 491 20,200 -2,100 Descending Miami Center
11:51AM 25.1625 -81.3169 43° Northeast 427 491 18,100 -2,040 Descending Miami Center
11:52AM 25.2400 -81.2347 44° Northeast 410 472 16,200 -1,920 Descending Miami Center
11:53AM 25.3175 -81.1572 42° Northeast 391 450 14,300 -1,920 Descending Miami Center
11:54AM 25.3931 -81.0794 43° Northeast 370 426 12,400 -1,920 Descending Miami Center
11:55AM 25.4208 -81.0503 43° Northeast 348 400 11,600 -1,740 Descending Miami Center
11:55AM 25.4617 -81.0106 41° Northeast 349 402 10,700 -1,200 Descending Miami Center
11:56AM 25.4897 -80.9769 47° Northeast 327 376 10,400 -540 Descending Miami Center
11:56AM 25.5261 -80.9436 40° Northeast 328 377 10,200 -420 Descending Miami Center
11:57AM 25.5478 -80.9189 46° Northeast 273 314 10,000 -540 Descending Miami Center
11:57AM 25.5719 -80.8783 57° Northeast 292 336 9,700 -1,020 Descending Miami Center
11:58AM 25.5897 -80.8328 67° East 283 326 8,900 -1,200 Descending Miami Center
11:58AM 25.6094 -80.8036 53° Northeast 278 320 8,500 -1,200 Descending Miami Center
11:59AM 25.6272 -80.7672 62° Northeast 274 315 7,800 -1,320 Descending Miami Center
11:59AM 25.6489 -80.7311 56° Northeast 270 311 7,200 -1,320 Descending Miami Center
12:00PM 25.6667 -80.6903 64° Northeast 281 323 6,500 -1,020 Descending Miami Center
12:00PM 25.6842 -80.6583 59° Northeast 270 311 6,200 -780 Descending Miami Center
12:01PM 25.6997 -80.6289 60° Northeast 259 298 5,800 -1,140 Descending Miami Center
12:01PM 25.7192 -80.5972 56° Northeast 259 298 5,100 -1,620 Descending Miami Center
12:02PM 25.7347 -80.5608 65° Northeast 243 280 4,200 -1,440 Descending Miami Center
12:02PM 25.7544 -80.5317 53° Northeast 254 292 3,700 -1,080 Descending Miami Center
12:03PM 25.7742 -80.4883 63° Northeast 243 280 3,000 -1,140 Descending Miami Center
12:03PM 25.7789 -80.4631 78° East 244 281 2,600 -1,260 Descending Miami Center
12:04PM 25.7803 -80.4147 88° East 225 259 1,700 -1,200 Descending Miami Center
12:04PM 25.7828 -80.3964 81° East 221 254 1,400 -1,020 Descending Miami Center
12:05PM 25.7817 -80.3569 92° East 173 199 700 -840 Descending Miami Center
12:06PM 25.7847 -80.3181 85° East 132 152 100 -660 Descending Miami Center
12:08PM 25.7833 -80.2833 90° East  Level FlightAware Approximate